createdAt,value
2018-01-04T00:00:18.412Z,960.1
2018-01-04T00:01:21.084Z,960
2018-01-04T00:02:23.860Z,960
2018-01-04T00:03:26.685Z,960
2018-01-04T00:04:29.276Z,960.1
2018-01-04T00:05:32.113Z,960
2018-01-04T00:06:35.092Z,960
2018-01-04T00:07:37.624Z,959.9
2018-01-04T00:08:40.148Z,960
2018-01-04T00:09:42.708Z,960
2018-01-04T00:10:45.241Z,960
2018-01-04T00:11:47.863Z,960
2018-01-04T00:12:50.529Z,959.9
2018-01-04T00:13:53.121Z,959.8
2018-01-04T00:14:55.581Z,959.7
2018-01-04T00:15:58.278Z,959.9
2018-01-04T00:17:00.958Z,959.9
2018-01-04T00:18:03.521Z,959.9
2018-01-04T00:19:06.145Z,959.8
2018-01-04T00:20:08.692Z,960
2018-01-04T00:21:11.163Z,960.1
2018-01-04T00:22:15.629Z,960.1
2018-01-04T00:23:18.192Z,960
2018-01-04T00:24:20.755Z,960.1
2018-01-04T00:25:23.375Z,960.1
2018-01-04T00:26:25.920Z,960
2018-01-04T00:27:28.471Z,960.1
2018-01-04T00:28:31.045Z,960.1
2018-01-04T00:29:33.690Z,960.1
2018-01-04T00:30:36.265Z,959.9
2018-01-04T00:31:39.248Z,960.1
2018-01-04T00:32:41.925Z,960
2018-01-04T00:33:44.389Z,960.1
2018-01-04T00:34:46.934Z,960.1
2018-01-04T00:35:49.456Z,960.2
2018-01-04T00:36:51.983Z,960.2
2018-01-04T00:37:54.497Z,960
2018-01-04T00:38:57.074Z,960.1
2018-01-04T00:39:59.608Z,960.1
2018-01-04T00:41:02.243Z,960.1
2018-01-04T00:43:13.116Z,960.1
2018-01-04T00:44:15.771Z,959.9
2018-01-04T00:45:18.379Z,960.1
2018-01-04T00:46:21.231Z,960.2
2018-01-04T00:47:23.753Z,960.2
2018-01-04T00:48:26.355Z,960.2
2018-01-04T00:49:29.162Z,960.2
2018-01-04T00:50:32.101Z,960.2
2018-01-04T00:51:34.879Z,960.2
2018-01-04T00:52:37.499Z,960.3
2018-01-04T00:53:40.859Z,960.3
2018-01-04T00:54:44.007Z,960.4
2018-01-04T00:55:46.924Z,960.4
2018-01-04T00:56:49.550Z,960.2
2018-01-04T00:57:54.093Z,960.3
2018-01-04T00:58:56.620Z,960.5
2018-01-04T00:59:59.167Z,960.4
2018-01-04T01:01:01.744Z,960.4
2018-01-04T01:02:04.486Z,960.2
2018-01-04T01:03:06.954Z,960.4
2018-01-04T01:04:09.538Z,960.5
2018-01-04T01:05:12.025Z,960.6
2018-01-04T01:06:14.485Z,960.6
2018-01-04T01:07:21.387Z,960.6
2018-01-04T01:08:23.907Z,960.6
2018-01-04T01:09:26.375Z,960.5
2018-01-04T01:10:28.897Z,960.5
2018-01-04T01:11:31.464Z,960.5
2018-01-04T01:12:33.991Z,960.6
2018-01-04T01:13:39.340Z,960.4
2018-01-04T01:14:41.909Z,960.6
2018-01-04T01:15:44.533Z,960.5
2018-01-04T01:16:47.406Z,960.5
2018-01-04T01:17:49.979Z,960.5
2018-01-04T01:18:52.514Z,960.5
2018-01-04T01:19:55.292Z,960.5
2018-01-04T01:20:57.757Z,960.6
2018-01-04T01:22:00.305Z,960.6
2018-01-04T01:23:02.910Z,960.5
2018-01-04T01:24:05.617Z,960.5
2018-01-04T01:25:08.078Z,960.5
2018-01-04T01:26:10.696Z,960.5
2018-01-04T01:27:13.328Z,960.4
2018-01-04T01:28:15.816Z,960.5
2018-01-04T01:29:18.357Z,960.7
2018-01-04T01:30:20.883Z,960.7
2018-01-04T01:31:23.386Z,960.6
2018-01-04T01:32:25.976Z,960.6
2018-01-04T01:33:28.532Z,960.6
2018-01-04T01:34:31.270Z,960.7
2018-01-04T01:35:33.794Z,960.7
2018-01-04T01:36:36.761Z,960.7
2018-01-04T01:37:39.584Z,960.6
2018-01-04T01:38:42.115Z,960.6
2018-01-04T01:39:44.570Z,960.4
2018-01-04T01:40:47.039Z,960.8
2018-01-04T01:41:49.535Z,960.7
2018-01-04T01:42:52.162Z,960.6
2018-01-04T01:43:54.695Z,960.6
2018-01-04T01:44:57.664Z,960.6
2018-01-04T01:46:00.216Z,960.6
2018-01-04T01:47:02.870Z,960.6
2018-01-04T01:48:05.476Z,960.7
2018-01-04T01:49:08.091Z,960.6
2018-01-04T01:50:10.628Z,960.6
2018-01-04T01:51:13.154Z,960.6
2018-01-04T01:52:15.664Z,960.5
2018-01-04T01:53:18.185Z,960.6
2018-01-04T01:54:21.008Z,960.5
2018-01-04T01:55:23.687Z,960.4
2018-01-04T01:56:26.281Z,960.5
2018-01-04T01:57:28.884Z,960.5
2018-01-04T01:58:31.468Z,960.5
2018-01-04T01:59:33.953Z,960.3
2018-01-04T02:00:36.497Z,960.5
2018-01-04T02:01:38.997Z,960.5
2018-01-04T02:02:41.531Z,960.5
2018-01-04T02:03:44.040Z,960.4
2018-01-04T02:04:46.506Z,960.4
2018-01-04T02:05:48.991Z,960.4
2018-01-04T02:06:51.520Z,960.6
2018-01-04T02:07:54.023Z,960.6
2018-01-04T02:08:56.521Z,960.5
2018-01-04T02:09:59.086Z,960.4
2018-01-04T02:11:01.743Z,960.5
2018-01-04T02:12:04.252Z,960.5
2018-01-04T02:13:06.917Z,960.6
2018-01-04T02:14:09.492Z,960.5
2018-01-04T02:15:11.993Z,960.4
2018-01-04T02:16:14.530Z,960.4
2018-01-04T02:17:17.063Z,960.4
2018-01-04T02:18:19.546Z,960.5
2018-01-04T02:19:22.090Z,960.5
2018-01-04T02:20:24.604Z,960.4
2018-01-04T02:21:27.671Z,960.4
2018-01-04T02:22:30.200Z,960.5
2018-01-04T02:23:32.762Z,960.5
2018-01-04T02:24:35.277Z,960.5
2018-01-04T02:25:37.749Z,960.6
2018-01-04T02:26:40.229Z,960.6
2018-01-04T02:27:43.242Z,960.5
2018-01-04T02:28:45.663Z,960.5
2018-01-04T02:29:48.147Z,960.5
2018-01-04T02:30:50.670Z,960.5
2018-01-04T02:31:53.236Z,960.5
2018-01-04T02:32:56.017Z,960.5
2018-01-04T02:33:58.554Z,960.7
2018-01-04T02:35:01.644Z,960.7
2018-01-04T02:36:04.843Z,960.7
2018-01-04T02:37:07.358Z,960.6
2018-01-04T02:38:13.053Z,960.5
2018-01-04T02:39:15.720Z,960.5
2018-01-04T02:40:18.229Z,960.6
2018-01-04T02:41:20.731Z,960.8
2018-01-04T02:42:24.000Z,960.7
2018-01-04T02:43:26.537Z,960.8
2018-01-04T02:44:29.308Z,960.8
2018-01-04T02:45:32.335Z,960.7
2018-01-04T02:46:34.812Z,960.9
2018-01-04T02:47:37.364Z,960.8
2018-01-04T02:48:39.854Z,960.9
2018-01-04T02:49:42.370Z,960.8
2018-01-04T02:50:44.826Z,960.9
2018-01-04T02:51:47.686Z,960.7
2018-01-04T02:52:50.207Z,960.8
2018-01-04T02:53:53.016Z,960.7
2018-01-04T02:54:55.509Z,960.9
2018-01-04T02:55:58.380Z,960.9
2018-01-04T02:57:00.837Z,960.9
2018-01-04T02:58:03.997Z,960.9
2018-01-04T02:59:06.464Z,961
2018-01-04T03:00:09.462Z,960.9
2018-01-04T03:01:11.984Z,961.1
2018-01-04T03:02:14.906Z,961
2018-01-04T03:03:17.507Z,960.9
2018-01-04T03:04:20.220Z,961.1
2018-01-04T03:05:22.783Z,961.1
2018-01-04T03:06:25.269Z,961
2018-01-04T03:07:27.772Z,961.1
2018-01-04T03:08:30.718Z,961.2
2018-01-04T03:09:33.315Z,961.1
2018-01-04T03:10:36.146Z,961.1
2018-01-04T03:11:38.572Z,961.1
2018-01-04T03:12:41.156Z,961.2
2018-01-04T03:13:43.702Z,961.1
2018-01-04T03:14:46.263Z,961.1
2018-01-04T03:15:48.763Z,961
2018-01-04T03:16:51.295Z,961
2018-01-04T03:17:53.832Z,960.9
2018-01-04T03:18:56.699Z,961
2018-01-04T03:19:59.252Z,960.9
2018-01-04T03:21:02.230Z,961.1
2018-01-04T03:22:05.108Z,961
2018-01-04T03:23:07.682Z,960.9
2018-01-04T03:24:10.256Z,961
2018-01-04T03:25:12.861Z,961.1
2018-01-04T03:26:15.415Z,961
2018-01-04T03:27:17.900Z,961.1
2018-01-04T03:28:20.377Z,961
2018-01-04T03:29:22.960Z,960.9
2018-01-04T03:30:25.582Z,961
2018-01-04T03:31:28.082Z,960.9
2018-01-04T03:32:37.594Z,960.9
2018-01-04T03:33:40.071Z,961
2018-01-04T03:34:42.875Z,960.9
2018-01-04T03:35:45.433Z,960.9
2018-01-04T03:36:47.869Z,961
2018-01-04T03:37:50.375Z,960.9
2018-01-04T03:38:53.068Z,961.1
2018-01-04T03:39:55.512Z,961.1
2018-01-04T03:40:58.578Z,961
2018-01-04T03:42:01.183Z,961.2
2018-01-04T03:43:04.134Z,961
2018-01-04T03:44:06.849Z,961.1
2018-01-04T03:45:09.358Z,961
2018-01-04T03:46:12.166Z,961.1
2018-01-04T03:47:14.796Z,960.9
2018-01-04T03:48:17.393Z,961.1
2018-01-04T03:49:19.955Z,961.1
2018-01-04T03:50:22.529Z,960.8
2018-01-04T03:51:25.229Z,960.9
2018-01-04T03:52:27.955Z,961.1
2018-01-04T03:53:30.425Z,961.1
2018-01-04T03:54:33.036Z,961.2
2018-01-04T03:55:35.567Z,961.1
2018-01-04T03:56:38.060Z,961.2
2018-01-04T03:57:40.565Z,961.2
2018-01-04T03:58:48.278Z,961.1
2018-01-04T03:59:50.812Z,961.2
2018-01-04T04:00:53.557Z,961.2
2018-01-04T04:01:56.572Z,961.1
2018-01-04T04:03:00.190Z,961.2
2018-01-04T04:04:02.780Z,961.1
2018-01-04T04:05:05.218Z,961.1
2018-01-04T04:06:07.686Z,961.1
2018-01-04T04:07:10.226Z,961.1
2018-01-04T04:08:12.821Z,961
2018-01-04T04:09:15.390Z,961
2018-01-04T04:10:17.873Z,961.1
2018-01-04T04:11:20.727Z,961.1
2018-01-04T04:12:24.388Z,961.1
2018-01-04T04:13:27.143Z,961.1
2018-01-04T04:14:29.609Z,961.1
2018-01-04T04:15:32.312Z,961
2018-01-04T04:16:34.813Z,961
2018-01-04T04:17:39.531Z,961.1
2018-01-04T04:18:42.014Z,961.1
2018-01-04T04:19:44.521Z,961.2
2018-01-04T04:20:49.223Z,961
2018-01-04T04:21:51.782Z,961.3
2018-01-04T04:22:54.587Z,961.2
2018-01-04T04:23:57.074Z,961.2
2018-01-04T04:24:59.636Z,961.2
2018-01-04T04:26:02.190Z,961.3
2018-01-04T04:27:04.729Z,961.2
2018-01-04T04:28:10.403Z,961.3
2018-01-04T04:29:12.911Z,961.3
2018-01-04T04:30:15.460Z,961.3
2018-01-04T04:31:17.963Z,961.3
2018-01-04T04:32:20.520Z,961.3
2018-01-04T04:33:23.056Z,961.3
2018-01-04T04:34:25.783Z,961.2
2018-01-04T04:35:28.490Z,961.3
2018-01-04T04:36:31.271Z,961.3
2018-01-04T04:37:33.930Z,961.1
2018-01-04T04:38:36.539Z,961.3
2018-01-04T04:39:39.060Z,961.3
2018-01-04T04:40:41.654Z,961.3
2018-01-04T04:41:44.675Z,961.3
2018-01-04T04:42:48.293Z,961.3
2018-01-04T04:43:50.929Z,961.3
2018-01-04T04:44:53.443Z,961.3
2018-01-04T04:45:56.008Z,961.4
2018-01-04T04:46:58.536Z,961.3
2018-01-04T04:48:01.079Z,961.3
2018-01-04T04:49:03.802Z,961.1
2018-01-04T04:50:06.356Z,961.4
2018-01-04T04:51:08.881Z,961.4
2018-01-04T04:52:11.436Z,961.3
2018-01-04T04:53:14.326Z,961.3
2018-01-04T04:54:16.867Z,961.4
2018-01-04T04:55:19.817Z,961.4
2018-01-04T04:56:22.258Z,961.3
2018-01-04T04:57:25.137Z,961.3
2018-01-04T04:58:29.305Z,961.4
2018-01-04T04:59:32.130Z,961.4
2018-01-04T05:00:34.638Z,961.4
2018-01-04T05:01:37.198Z,961.5
2018-01-04T05:02:39.621Z,961.5
2018-01-04T05:03:42.394Z,961.6
2018-01-04T05:04:45.361Z,961.6
2018-01-04T05:05:47.950Z,961.6
2018-01-04T05:06:50.748Z,961.5
2018-01-04T05:07:53.296Z,961.6
2018-01-04T05:08:56.234Z,961.5
2018-01-04T05:09:58.725Z,961.5
2018-01-04T05:11:01.282Z,961.1
2018-01-04T05:12:03.963Z,961.6
2018-01-04T05:13:06.496Z,961.5
2018-01-04T05:14:09.043Z,961.6
2018-01-04T05:15:11.564Z,961.5
2018-01-04T05:16:14.008Z,961.5
2018-01-04T05:17:16.546Z,961.5
2018-01-04T05:18:19.407Z,961.5
2018-01-04T05:19:21.989Z,961.5
2018-01-04T05:20:24.566Z,961.5
2018-01-04T05:21:27.145Z,961.5
2018-01-04T05:22:29.694Z,961.3
2018-01-04T05:23:32.304Z,961.6
2018-01-04T05:24:35.112Z,961.4
2018-01-04T05:25:38.043Z,961.5
2018-01-04T05:26:40.523Z,961.4
2018-01-04T05:27:42.976Z,961.4
2018-01-04T05:28:45.925Z,961.4
2018-01-04T05:29:48.469Z,961.4
2018-01-04T05:30:52.189Z,961.5
2018-01-04T05:31:54.669Z,961.5
2018-01-04T05:32:57.157Z,961.2
2018-01-04T05:33:59.711Z,961.3
2018-01-04T05:35:02.355Z,961.3
2018-01-04T05:36:04.800Z,961.3
2018-01-04T05:37:07.364Z,961.3
2018-01-04T05:38:09.811Z,961.3
2018-01-04T05:39:12.663Z,961.3
2018-01-04T05:40:15.654Z,961.2
2018-01-04T05:41:18.498Z,961.2
2018-01-04T05:42:21.072Z,961.2
2018-01-04T05:43:23.649Z,961.3
2018-01-04T05:44:26.151Z,961.2
2018-01-04T05:45:28.675Z,961.2
2018-01-04T05:46:31.491Z,961.1
2018-01-04T05:47:34.007Z,961.2
2018-01-04T05:48:36.582Z,961.2
2018-01-04T05:49:39.125Z,961.2
2018-01-04T05:50:41.794Z,961.2
2018-01-04T05:51:44.371Z,961.2
2018-01-04T05:52:46.877Z,961.1
2018-01-04T05:53:49.444Z,961.1
2018-01-04T05:54:51.979Z,961.1
2018-01-04T05:55:54.659Z,961.2
2018-01-04T05:56:57.262Z,961.1
2018-01-04T05:57:59.749Z,961.2
2018-01-04T05:59:02.291Z,960.9
2018-01-04T06:00:05.313Z,961.1
2018-01-04T06:01:08.037Z,961
2018-01-04T06:02:10.868Z,961
2018-01-04T06:03:13.846Z,961.1
2018-01-04T06:04:16.410Z,961.1
2018-01-04T06:05:19.064Z,961.1
2018-01-04T06:06:21.644Z,961.2
2018-01-04T06:07:24.753Z,961.1
2018-01-04T06:08:27.355Z,961.2
2018-01-04T06:09:32.232Z,961.1
2018-01-04T06:10:34.833Z,961.2
2018-01-04T06:11:37.516Z,961.2
2018-01-04T06:12:40.281Z,961.1
2018-01-04T06:13:44.590Z,961.3
2018-01-04T06:14:47.180Z,961.4
2018-01-04T06:15:49.705Z,961.3
2018-01-04T06:16:52.336Z,961.3
2018-01-04T06:17:54.841Z,961.3
2018-01-04T06:18:58.372Z,961.3
2018-01-04T06:20:01.036Z,961.2
2018-01-04T06:21:03.880Z,961.2
2018-01-04T06:22:06.432Z,960.9
2018-01-04T06:23:09.181Z,961.2
2018-01-04T06:24:17.227Z,961.2
2018-01-04T06:25:20.003Z,961.2
2018-01-04T06:26:22.678Z,961.1
2018-01-04T06:27:25.292Z,961.2
2018-01-04T06:28:27.848Z,961.2
2018-01-04T06:29:30.560Z,961.1
2018-01-04T06:30:33.398Z,961.2
2018-01-04T06:31:39.393Z,961.1
2018-01-04T06:32:42.151Z,961.1
2018-01-04T06:33:44.780Z,961.1
2018-01-04T06:34:47.965Z,961.2
2018-01-04T06:35:50.542Z,961.1
2018-01-04T06:36:58.792Z,961.1
2018-01-04T06:38:02.554Z,961.1
2018-01-04T06:39:05.119Z,961.3
2018-01-04T06:40:07.899Z,961.1
2018-01-04T06:41:10.519Z,961.1
2018-01-04T06:42:13.139Z,961.1
2018-01-04T06:43:20.743Z,961
2018-01-04T06:44:25.403Z,961.1
2018-01-04T06:45:28.139Z,961.1
2018-01-04T06:46:30.777Z,961.2
2018-01-04T06:47:33.526Z,961.1
2018-01-04T06:48:36.195Z,961.2
2018-01-04T06:49:38.898Z,961.1
2018-01-04T06:50:41.514Z,961.2
2018-01-04T06:51:44.410Z,961
2018-01-04T06:52:47.325Z,961
2018-01-04T06:53:49.828Z,960.9
2018-01-04T06:54:52.393Z,961
2018-01-04T06:55:55.054Z,961
2018-01-04T06:56:57.728Z,961.1
2018-01-04T06:58:00.326Z,960.8
2018-01-04T06:59:02.924Z,961.2
2018-01-04T07:00:05.673Z,961.1
2018-01-04T07:01:08.598Z,961.1
2018-01-04T07:02:11.147Z,961.2
2018-01-04T07:03:13.700Z,961.1
2018-01-04T07:04:16.489Z,961.1
2018-01-04T07:05:19.546Z,961.2
2018-01-04T07:06:22.195Z,961.1
2018-01-04T07:07:24.750Z,961.3
2018-01-04T07:08:27.455Z,961.4
2018-01-04T07:09:30.051Z,961.2
2018-01-04T07:10:32.584Z,961.3
2018-01-04T07:11:35.093Z,961.2
2018-01-04T07:12:37.717Z,961.3
2018-01-04T07:13:40.644Z,961.1
2018-01-04T07:14:43.223Z,961.3
2018-01-04T07:15:46.239Z,961.3
2018-01-04T07:16:50.000Z,961.3
2018-01-04T07:17:52.584Z,961.3
2018-01-04T07:18:55.343Z,961.3
2018-01-04T07:19:58.078Z,961.3
2018-01-04T07:21:00.626Z,961.3
2018-01-04T07:22:03.410Z,961.6
2018-01-04T07:23:06.108Z,961
2018-01-04T07:24:08.750Z,961.4
2018-01-04T07:25:11.474Z,961.4
2018-01-04T07:26:14.130Z,961.4
2018-01-04T07:27:16.650Z,961.4
2018-01-04T07:28:19.296Z,961.5
2018-01-04T07:29:22.575Z,961.5
2018-01-04T07:30:25.252Z,961.5
2018-01-04T07:31:28.190Z,961.5
2018-01-04T07:32:30.862Z,961.2
2018-01-04T07:33:33.406Z,961.4
2018-01-04T07:34:35.934Z,961.4
2018-01-04T07:35:38.629Z,961.5
2018-01-04T07:36:41.198Z,961.4
2018-01-04T07:37:43.740Z,961.4
2018-01-04T07:38:46.331Z,961.4
2018-01-04T07:39:49.241Z,961.3
2018-01-04T07:40:51.867Z,961.4
2018-01-04T07:41:54.647Z,961.4
2018-01-04T07:42:57.226Z,961.4
2018-01-04T07:44:00.002Z,961.3
2018-01-04T07:45:02.804Z,961.3
2018-01-04T07:46:05.333Z,961.4
2018-01-04T07:47:08.228Z,961.1
2018-01-04T07:48:10.807Z,961.3
2018-01-04T07:49:13.476Z,961.2
2018-01-04T07:50:16.139Z,961
2018-01-04T07:51:19.068Z,961.4
2018-01-04T07:52:21.841Z,961.5
2018-01-04T07:53:26.321Z,961.5
2018-01-04T07:54:29.369Z,961.3
2018-01-04T07:55:32.019Z,961.5
2018-01-04T07:56:34.695Z,961.4
2018-01-04T07:57:37.788Z,961.4
2018-01-04T07:58:40.296Z,961.5
2018-01-04T07:59:43.030Z,961.5
2018-01-04T08:00:45.710Z,961.6
2018-01-04T08:01:48.939Z,961.5
2018-01-04T08:02:51.560Z,961.6
2018-01-04T08:03:54.094Z,961.5
2018-01-04T08:04:56.876Z,961.6
2018-01-04T08:05:59.620Z,961.6
2018-01-04T08:07:02.213Z,961.6
2018-01-04T08:08:04.945Z,961.6
2018-01-04T08:09:07.558Z,961.6
2018-01-04T08:10:10.169Z,961.6
2018-01-04T08:11:12.979Z,961.6
2018-01-04T08:12:15.604Z,961.6
2018-01-04T08:13:18.292Z,961.7
2018-01-04T08:14:20.957Z,961.5
2018-01-04T08:15:23.594Z,961.7
2018-01-04T08:16:26.445Z,961.7
2018-01-04T08:17:30.463Z,961.8
2018-01-04T08:18:33.198Z,961.8
2018-01-04T08:19:35.827Z,961.8
2018-01-04T08:20:39.598Z,961.8
2018-01-04T08:21:43.264Z,961.5
2018-01-04T08:22:45.852Z,961.7
2018-01-04T08:23:48.592Z,961.8
2018-01-04T08:24:51.637Z,961.8
2018-01-04T08:25:54.252Z,961.8
2018-01-04T08:27:09.538Z,961.7
2018-01-04T08:28:13.117Z,961.6
2018-01-04T08:29:18.465Z,961.8
2018-01-04T08:30:21.483Z,961.7
2018-01-04T08:31:24.202Z,961.8
2018-01-04T08:32:26.990Z,961.8
2018-01-04T08:33:29.785Z,961.8
2018-01-04T08:34:32.405Z,961.8
2018-01-04T08:35:35.137Z,961.7
2018-01-04T08:36:40.427Z,961.7
2018-01-04T08:37:43.186Z,961.8
2018-01-04T08:38:45.773Z,961.8
2018-01-04T08:39:48.736Z,961.7
2018-01-04T08:40:53.298Z,961.7
2018-01-04T08:41:55.947Z,961.8
2018-01-04T08:42:58.638Z,961.6
2018-01-04T08:44:01.744Z,961.8
2018-01-04T08:45:07.498Z,961.2
2018-01-04T08:46:11.270Z,961.6
2018-01-04T08:47:20.004Z,961.8
2018-01-04T08:48:28.415Z,961.7
2018-01-04T08:49:32.883Z,961.9
2018-01-04T08:50:35.823Z,961.6
2018-01-04T08:51:38.969Z,961.8
2018-01-04T08:52:45.870Z,961.8
2018-01-04T08:53:48.623Z,961.8
2018-01-04T08:54:54.806Z,961.8
2018-01-04T08:55:58.291Z,961.9
2018-01-04T08:57:04.323Z,961.8
2018-01-04T08:58:07.071Z,961.8
2018-01-04T08:59:10.103Z,961.8
2018-01-04T09:00:12.844Z,961.9
2018-01-04T09:01:16.907Z,961.9
2018-01-04T09:02:19.868Z,962
2018-01-04T09:03:27.177Z,961.8
2018-01-04T09:04:29.989Z,962
2018-01-04T09:05:33.816Z,961.9
2018-01-04T09:06:36.536Z,961.6
2018-01-04T09:07:39.318Z,961.9
2018-01-04T09:08:42.931Z,961.9
2018-01-04T09:09:46.574Z,961.8
2018-01-04T09:10:49.353Z,961.8
2018-01-04T09:11:53.240Z,961.8
2018-01-04T09:12:56.687Z,961.8
2018-01-04T09:13:59.784Z,961.7
2018-01-04T09:15:02.674Z,961.7
2018-01-04T09:16:05.380Z,961.6
2018-01-04T09:17:08.004Z,961.7
2018-01-04T09:18:10.908Z,961.7
2018-01-04T09:19:13.839Z,961.6
2018-01-04T09:20:16.696Z,961.7
2018-01-04T09:21:19.555Z,961.7
2018-01-04T09:22:23.085Z,961.7
2018-01-04T09:23:25.845Z,961.7
2018-01-04T09:24:31.284Z,961.6
2018-01-04T09:25:37.276Z,961.6
2018-01-04T09:26:40.260Z,961.5
2018-01-04T09:27:43.749Z,961.7
2018-01-04T09:28:47.323Z,961.7
2018-01-04T09:29:50.341Z,961.7
2018-01-04T09:30:52.917Z,961.7
2018-01-04T09:31:55.517Z,961.7
2018-01-04T09:32:58.165Z,961.7
2018-01-04T09:34:01.036Z,961.8
2018-01-04T09:35:05.221Z,961.6
2018-01-04T09:36:07.953Z,961.7
2018-01-04T09:37:11.152Z,961.7
2018-01-04T09:38:14.544Z,961.7
2018-01-04T09:39:17.126Z,961.7
2018-01-04T09:40:19.844Z,961.5
2018-01-04T09:41:22.826Z,961.7
2018-01-04T09:42:25.399Z,961.7
2018-01-04T09:43:28.014Z,961.7
2018-01-04T09:44:30.700Z,961.6
2018-01-04T09:45:33.912Z,961.6
2018-01-04T09:46:36.790Z,961.7
2018-01-04T09:47:43.893Z,961.7
2018-01-04T09:48:46.633Z,961.7
2018-01-04T09:49:49.406Z,961.6
2018-01-04T09:50:52.128Z,961.6
2018-01-04T09:51:55.084Z,961.6
2018-01-04T09:52:58.263Z,961.5
2018-01-04T09:54:01.229Z,961.5
2018-01-04T09:55:03.828Z,961.5
2018-01-04T09:56:06.549Z,961.5
2018-01-04T09:57:09.241Z,961.5
2018-01-04T09:58:12.062Z,961.5
2018-01-04T09:59:14.709Z,961.5
2018-01-04T10:00:17.348Z,961.5
2018-01-04T10:01:20.313Z,961.5
2018-01-04T10:02:23.058Z,961.4
2018-01-04T10:03:25.797Z,961.4
2018-01-04T10:04:29.418Z,961.3
2018-01-04T10:05:32.417Z,961.3
2018-01-04T10:06:34.978Z,961.3
2018-01-04T10:07:38.073Z,961.3
2018-01-04T10:08:45.451Z,961.1
2018-01-04T10:09:48.343Z,961.3
2018-01-04T10:10:51.411Z,961.3
2018-01-04T10:11:54.586Z,961.2
2018-01-04T10:12:57.630Z,961.2
2018-01-04T10:14:01.162Z,961.2
2018-01-04T10:15:04.618Z,961.1
2018-01-04T10:16:07.760Z,961.1
2018-01-04T10:17:11.013Z,961.1
2018-01-04T10:18:13.647Z,961.1
2018-01-04T10:19:16.512Z,961.1
2018-01-04T10:20:19.331Z,961.1
2018-01-04T10:21:21.931Z,961.2
2018-01-04T10:22:24.604Z,961.1
2018-01-04T10:23:28.020Z,961.2
2018-01-04T10:24:30.754Z,961.1
2018-01-04T10:25:33.527Z,960.8
2018-01-04T10:26:36.422Z,961.1
2018-01-04T10:27:44.524Z,961
2018-01-04T10:28:48.479Z,961.1
2018-01-04T10:29:51.468Z,961.1
2018-01-04T10:30:54.376Z,961.2
2018-01-04T10:31:57.169Z,961.1
2018-01-04T10:33:00.050Z,961.1
2018-01-04T10:34:11.887Z,961.1
2018-01-04T10:36:29.967Z,961.2
2018-01-04T10:37:39.188Z,960.9
2018-01-04T10:38:42.517Z,961.1
2018-01-04T10:39:45.187Z,961.1
2018-01-04T10:40:48.270Z,961.1
2018-01-04T10:41:51.229Z,961.1
2018-01-04T10:42:53.986Z,961
2018-01-04T10:43:56.750Z,960.9
2018-01-04T10:45:03.216Z,961
2018-01-04T10:46:08.418Z,961
2018-01-04T10:47:11.985Z,960.8
2018-01-04T10:48:15.160Z,960.8
2018-01-04T10:49:20.509Z,960.7
2018-01-04T10:50:23.343Z,961
2018-01-04T10:51:26.417Z,960.9
2018-01-04T10:52:29.427Z,960.9
2018-01-04T10:53:32.620Z,960.7
2018-01-04T10:54:35.621Z,960.9
2018-01-04T10:55:38.667Z,960.9
2018-01-04T10:56:41.617Z,960.7
2018-01-04T10:57:44.834Z,960.6
2018-01-04T10:58:47.772Z,960.9
2018-01-04T10:59:50.661Z,961
2018-01-04T11:00:53.597Z,960.7
2018-01-04T11:01:56.517Z,960.8
2018-01-04T11:02:59.979Z,960.8
2018-01-04T11:04:03.465Z,960.6
2018-01-04T11:05:06.835Z,960.8
2018-01-04T11:06:09.765Z,960.8
2018-01-04T11:07:12.509Z,960.8
2018-01-04T11:08:18.297Z,960.9
2018-01-04T11:09:22.503Z,960.8
2018-01-04T11:10:25.350Z,960.7
2018-01-04T11:11:28.251Z,960.8
2018-01-04T11:12:31.489Z,960.7
2018-01-04T11:13:38.203Z,960.7
2018-01-04T11:14:41.800Z,960.7
2018-01-04T11:15:45.792Z,960.6
2018-01-04T11:16:48.499Z,960.7
2018-01-04T11:17:53.669Z,960.5
2018-01-04T11:18:56.460Z,960.7
2018-01-04T11:20:05.151Z,960.7
2018-01-04T11:21:07.946Z,960.6
2018-01-04T11:22:12.284Z,960.6
2018-01-04T11:23:15.121Z,960.5
2018-01-04T11:24:17.863Z,960.6
2018-01-04T11:25:20.620Z,960.5
2018-01-04T11:26:23.305Z,960.6
2018-01-04T11:27:26.607Z,960.6
2018-01-04T11:28:29.647Z,960.7
2018-01-04T11:29:32.856Z,960.6
2018-01-04T11:30:35.704Z,960.5
2018-01-04T11:31:43.654Z,960.5
2018-01-04T11:32:46.372Z,960.6
2018-01-04T11:33:49.647Z,960.5
2018-01-04T11:34:52.416Z,960.6
2018-01-04T11:35:55.033Z,960.5
2018-01-04T11:38:15.997Z,960.2
2018-01-04T11:39:18.852Z,960.4
2018-01-04T11:40:21.839Z,960.4
2018-01-04T11:41:24.777Z,960.5
2018-01-04T11:42:27.415Z,960.5
2018-01-04T11:43:30.779Z,960.4
2018-01-04T11:44:33.489Z,960.3
2018-01-04T11:45:36.080Z,960.3
2018-01-04T11:46:39.647Z,960.2
2018-01-04T11:47:43.038Z,960.2
2018-01-04T11:48:45.788Z,960.3
2018-01-04T11:49:48.512Z,960.1
2018-01-04T11:50:51.245Z,960.1
2018-01-04T11:51:53.982Z,960.2
2018-01-04T11:52:56.782Z,960.2
2018-01-04T11:53:59.540Z,960
2018-01-04T11:55:02.524Z,960.2
2018-01-04T11:56:05.316Z,960.1
2018-01-04T11:57:08.234Z,960.2
2018-01-04T11:58:11.038Z,960.1
2018-01-04T11:59:13.703Z,960.1
2018-01-04T12:00:16.470Z,960.1
2018-01-04T12:01:19.294Z,960
2018-01-04T12:02:22.701Z,959.9
2018-01-04T12:03:25.420Z,960.2
2018-01-04T12:04:27.985Z,960.1
2018-01-04T12:05:30.952Z,960.2
2018-01-04T12:06:33.592Z,960
2018-01-04T12:07:38.177Z,960
2018-01-04T12:08:40.865Z,960.1
2018-01-04T12:09:43.492Z,960.2
2018-01-04T12:10:46.117Z,960.1
2018-01-04T12:11:48.710Z,960.1
2018-01-04T12:12:51.481Z,960.1
2018-01-04T12:13:54.089Z,960
2018-01-04T12:14:56.708Z,959.9
2018-01-04T12:15:59.346Z,959.9
2018-01-04T12:17:03.074Z,959.5
2018-01-04T12:18:05.761Z,959.7
2018-01-04T12:19:09.035Z,959.7
2018-01-04T12:20:11.922Z,959.7
2018-01-04T12:21:14.632Z,959.7
2018-01-04T12:22:17.225Z,959.6
2018-01-04T12:23:20.199Z,959.7
2018-01-04T12:24:22.851Z,959.5
2018-01-04T12:25:25.477Z,959.6
2018-01-04T12:26:28.126Z,959.6
2018-01-04T12:27:30.786Z,959.7
2018-01-04T12:28:33.426Z,959.4
2018-01-04T12:29:36.109Z,959.6
2018-01-04T12:30:38.887Z,959.5
2018-01-04T12:31:41.785Z,959.4
2018-01-04T12:32:44.463Z,959.4
2018-01-04T12:33:47.210Z,959.4
2018-01-04T12:34:50.430Z,959.4
2018-01-04T12:35:53.168Z,959.4
2018-01-04T12:36:57.557Z,959.3
2018-01-04T12:38:00.080Z,959.4
2018-01-04T12:39:02.515Z,959.3
2018-01-04T12:40:05.057Z,959.3
2018-01-04T12:41:07.555Z,959.4
2018-01-04T12:42:10.421Z,959.2
2018-01-04T12:43:12.878Z,959.3
2018-01-04T12:44:15.638Z,959.2
2018-01-04T12:45:18.420Z,959.1
2018-01-04T12:46:21.388Z,959
2018-01-04T12:47:24.250Z,959
2018-01-04T12:48:26.967Z,959.1
2018-01-04T12:49:29.683Z,959
2018-01-04T12:50:32.343Z,959
2018-01-04T12:51:35.027Z,959
2018-01-04T12:52:37.655Z,959
2018-01-04T12:53:40.367Z,959
2018-01-04T12:54:43.030Z,958.8
2018-01-04T12:55:45.804Z,958.9
2018-01-04T12:56:48.929Z,958.9
2018-01-04T12:57:51.633Z,959
2018-01-04T12:58:54.253Z,958.8
2018-01-04T12:59:56.897Z,959
2018-01-04T13:00:59.721Z,959
2018-01-04T13:02:02.332Z,959
2018-01-04T13:03:05.084Z,958.8
2018-01-04T13:04:07.528Z,958.9
2018-01-04T13:05:10.827Z,958.9
2018-01-04T13:06:13.277Z,958.8
2018-01-04T13:07:15.847Z,958.8
2018-01-04T13:08:18.385Z,958.8
2018-01-04T13:09:21.112Z,958.8
2018-01-04T13:10:23.630Z,958.6
2018-01-04T13:11:26.111Z,958.8
2018-01-04T13:12:28.589Z,958.8
2018-01-04T13:13:31.166Z,958.8
2018-01-04T13:14:33.711Z,958.7
2018-01-04T13:15:36.216Z,958.7
2018-01-04T13:16:38.660Z,958.5
2018-01-04T13:17:41.366Z,958.7
2018-01-04T13:18:43.924Z,958.7
2018-01-04T13:19:50.175Z,958.7
2018-01-04T13:20:52.672Z,958.8
2018-01-04T13:21:55.251Z,958.7
2018-01-04T13:22:57.857Z,958.8
2018-01-04T13:24:00.431Z,958.8
2018-01-04T13:25:02.959Z,958.8
2018-01-04T13:26:05.566Z,958.7
2018-01-04T13:27:08.194Z,958.7
2018-01-04T13:28:11.924Z,958.7
2018-01-04T13:29:14.463Z,958.6
2018-01-04T13:30:16.882Z,958.7
2018-01-04T13:31:19.402Z,958.7
2018-01-04T13:32:21.958Z,958.6
2018-01-04T13:33:24.540Z,958.7
2018-01-04T13:34:27.190Z,958.6
2018-01-04T13:35:29.700Z,958.6
2018-01-04T13:36:32.268Z,958.6
2018-01-04T13:37:34.899Z,958.5
2018-01-04T13:38:37.526Z,958.6
2018-01-04T13:39:40.256Z,958.6